sensor_id;sensor_type;location;lat;lon;timestamp;pressure;altitude;pressure_sealevel;temperature;humidity
77778;BME280;66966;-34.746;138.604;2023-03-26T00:00:33;101500.06;;;19.90;39.15
77778;BME280;66966;-34.746;138.604;2023-03-26T00:02:59;101497.57;;;19.94;38.77
77778;BME280;66966;-34.746;138.604;2023-03-26T00:05:24;101496.42;;;19.92;38.33
77778;BME280;66966;-34.746;138.604;2023-03-26T00:07:49;101501.42;;;19.90;38.29
77778;BME280;66966;-34.746;138.604;2023-03-26T00:10:15;101505.96;;;19.89;38.47
77778;BME280;66966;-34.746;138.604;2023-03-26T00:12:40;101507.97;;;19.94;38.14
77778;BME280;66966;-34.746;138.604;2023-03-26T00:15:07;101493.29;;;19.97;37.80
77778;BME280;66966;-34.746;138.604;2023-03-26T00:17:32;101482.62;;;20.04;38.36
77778;BME280;66966;-34.746;138.604;2023-03-26T00:19:57;101473.93;;;20.15;38.41
77778;BME280;66966;-34.746;138.604;2023-03-26T00:22:23;101472.70;;;20.21;38.63
77778;BME280;66966;-34.746;138.604;2023-03-26T00:24:48;101471.21;;;20.31;38.71
77778;BME280;66966;-34.746;138.604;2023-03-26T00:27:13;101475.57;;;20.40;38.72
77778;BME280;66966;-34.746;138.604;2023-03-26T00:29:39;101482.85;;;20.47;38.63
77778;BME280;66966;-34.746;138.604;2023-03-26T00:32:05;101489.24;;;20.54;38.11
77778;BME280;66966;-34.746;138.604;2023-03-26T00:34:30;101495.65;;;20.54;37.83
77778;BME280;66966;-34.746;138.604;2023-03-26T00:36:55;101495.90;;;20.59;37.88
77778;BME280;66966;-34.746;138.604;2023-03-26T00:39:21;101489.64;;;19.70;37.94
77778;BME280;66966;-34.746;138.604;2023-03-26T00:41:46;101479.77;;;20.54;38.12
77778;BME280;66966;-34.746;138.604;2023-03-26T00:44:13;101476.38;;;20.62;38.20
77778;BME280;66966;-34.746;138.604;2023-03-26T00:46:38;101465.85;;;20.67;38.37
77778;BME280;66966;-34.746;138.604;2023-03-26T00:49:03;101458.60;;;20.75;38.18
77778;BME280;66966;-34.746;138.604;2023-03-26T00:51:28;101452.96;;;20.78;37.84
77778;BME280;66966;-34.746;138.604;2023-03-26T00:53:54;101449.52;;;20.60;37.65
77778;BME280;66966;-34.746;138.604;2023-03-26T00:56:19;101446.52;;;20.89;37.58
77778;BME280;66966;-34.746;138.604;2023-03-26T00:58:45;101440.31;;;20.69;37.57
77778;BME280;66966;-34.746;138.604;2023-03-26T01:01:11;101436.02;;;20.99;36.99
77778;BME280;66966;-34.746;138.604;2023-03-26T01:03:36;101433.99;;;21.06;36.53
77778;BME280;66966;-34.746;138.604;2023-03-26T01:06:02;101435.22;;;21.36;36.64
77778;BME280;66966;-34.746;138.604;2023-03-26T01:08:29;101430.55;;;20.94;36.66
77778;BME280;66966;-34.746;138.604;2023-03-26T01:10:53;101428.82;;;21.25;36.00
77778;BME280;66966;-34.746;138.604;2023-03-26T01:13:18;101422.75;;;21.06;35.91
77778;BME280;66966;-34.746;138.604;2023-03-26T01:15:42;101415.24;;;21.13;35.69
77778;BME280;66966;-34.746;138.604;2023-03-26T01:18:07;101408.19;;;21.18;35.66
77778;BME280;66966;-34.746;138.604;2023-03-26T01:20:35;101394.44;;;21.28;35.64
77778;BME280;66966;-34.746;138.604;2023-03-26T01:23:02;101377.09;;;21.39;34.88
77778;BME280;66966;-34.746;138.604;2023-03-26T01:25:26;101367.58;;;21.48;34.44
77778;BME280;66966;-34.746;138.604;2023-03-26T01:27:50;101360.60;;;21.63;34.41
77778;BME280;66966;-34.746;138.604;2023-03-26T01:30:19;101360.17;;;21.55;34.06
77778;BME280;66966;-34.746;138.604;2023-03-26T01:32:49;101347.43;;;21.43;33.62
77778;BME280;66966;-34.746;138.604;2023-03-26T01:35:16;101345.02;;;21.64;33.56
77778;BME280;66966;-34.746;138.604;2023-03-26T01:37:36;101344.34;;;21.83;33.42
77778;BME280;66966;-34.746;138.604;2023-03-26T01:39:58;101345.19;;;22.26;32.71
77778;BME280;66966;-34.746;138.604;2023-03-26T01:42:27;101338.65;;;21.57;32.29
77778;BME280;66966;-34.746;138.604;2023-03-26T01:44:51;101337.86;;;22.05;31.78
77778;BME280;66966;-34.746;138.604;2023-03-26T01:47:13;101340.26;;;22.06;31.26
77778;BME280;66966;-34.746;138.604;2023-03-26T01:49:38;101345.83;;;21.90;31.51
77778;BME280;66966;-34.746;138.604;2023-03-26T01:52:09;101348.14;;;22.31;31.16
77778;BME280;66966;-34.746;138.604;2023-03-26T01:54:31;101346.08;;;22.48;31.22
77778;BME280;66966;-34.746;138.604;2023-03-26T01:57:02;101331.73;;;22.58;30.61
77778;BME280;66966;-34.746;138.604;2023-03-26T02:01:49;101316.01;;;22.81;30.71
77778;BME280;66966;-34.746;138.604;2023-03-26T02:04:16;101309.18;;;22.89;29.78
77778;BME280;66966;-34.746;138.604;2023-03-26T02:06:41;101299.00;;;22.62;29.35
77778;BME280;66966;-34.746;138.604;2023-03-26T02:09:03;101289.07;;;22.49;28.47
77778;BME280;66966;-34.746;138.604;2023-03-26T02:11:26;101287.38;;;22.56;28.55
77778;BME280;66966;-34.746;138.604;2023-03-26T02:13:52;101299.25;;;22.53;28.69
77778;BME280;66966;-34.746;138.604;2023-03-26T02:16:18;101320.32;;;22.33;28.89
77778;BME280;66966;-34.746;138.604;2023-03-26T02:18:43;101328.53;;;22.44;29.20
77778;BME280;66966;-34.746;138.604;2023-03-26T02:21:10;101323.73;;;22.82;29.69
77778;BME280;66966;-34.746;138.604;2023-03-26T02:23:33;101316.71;;;22.91;28.56
77778;BME280;66966;-34.746;138.604;2023-03-26T02:25:58;101309.72;;;22.99;28.35
77778;BME280;66966;-34.746;138.604;2023-03-26T02:28:24;101304.39;;;22.67;28.61
77778;BME280;66966;-34.746;138.604;2023-03-26T02:30:49;101303.24;;;23.07;28.56
77778;BME280;66966;-34.746;138.604;2023-03-26T02:33:14;101293.19;;;23.16;28.44
77778;BME280;66966;-34.746;138.604;2023-03-26T02:35:40;101287.85;;;23.01;28.63
77778;BME280;66966;-34.746;138.604;2023-03-26T02:38:05;101274.93;;;23.30;28.41
77778;BME280;66966;-34.746;138.604;2023-03-26T02:40:30;101264.66;;;23.34;27.63
77778;BME280;66966;-34.746;138.604;2023-03-26T02:42:56;101253.03;;;23.14;27.37
77778;BME280;66966;-34.746;138.604;2023-03-26T02:45:21;101247.84;;;22.92;27.19
77778;BME280;66966;-34.746;138.604;2023-03-26T02:47:47;101240.33;;;23.18;26.34
77778;BME280;66966;-34.746;138.604;2023-03-26T02:50:12;101223.39;;;23.33;26.34
77778;BME280;66966;-34.746;138.604;2023-03-26T02:52:37;101215.95;;;23.08;26.31
77778;BME280;66966;-34.746;138.604;2023-03-26T02:55:02;101226.99;;;23.36;26.30
77778;BME280;66966;-34.746;138.604;2023-03-26T02:57:28;101238.82;;;23.12;26.21
77778;BME280;66966;-34.746;138.604;2023-03-26T02:59:54;101246.11;;;23.13;26.63
77778;BME280;66966;-34.746;138.604;2023-03-26T03:02:19;101247.05;;;23.45;26.42
77778;BME280;66966;-34.746;138.604;2023-03-26T03:04:44;101238.69;;;23.27;26.30
77778;BME280;66966;-34.746;138.604;2023-03-26T03:07:09;101230.87;;;23.30;26.13
77778;BME280;66966;-34.746;138.604;2023-03-26T03:09:34;101227.11;;;23.32;25.71
77778;BME280;66966;-34.746;138.604;2023-03-26T03:12:00;101233.74;;;23.34;25.62
77778;BME280;66966;-34.746;138.604;2023-03-26T03:14:25;101238.07;;;23.37;25.51
77778;BME280;66966;-34.746;138.604;2023-03-26T03:16:50;101242.28;;;23.39;25.03
77778;BME280;66966;-34.746;138.604;2023-03-26T03:19:16;101240.69;;;23.35;24.56
77778;BME280;66966;-34.746;138.604;2023-03-26T03:21:41;101233.36;;;23.36;24.50
77778;BME280;66966;-34.746;138.604;2023-03-26T03:24:07;101227.56;;;23.58;24.19
77778;BME280;66966;-34.746;138.604;2023-03-26T03:26:32;101224.33;;;23.30;24.63
77778;BME280;66966;-34.746;138.604;2023-03-26T03:28:57;101223.76;;;23.54;24.15
77778;BME280;66966;-34.746;138.604;2023-03-26T03:31:23;101223.03;;;23.30;24.58
77778;BME280;66966;-34.746;138.604;2023-03-26T03:33:48;101213.73;;;23.28;24.64
77778;BME280;66966;-34.746;138.604;2023-03-26T03:36:14;101202.77;;;23.04;23.77
77778;BME280;66966;-34.746;138.604;2023-03-26T03:38:39;101191.84;;;23.37;24.18
77778;BME280;66966;-34.746;138.604;2023-03-26T03:41:04;101184.14;;;23.39;23.97
77778;BME280;66966;-34.746;138.604;2023-03-26T03:43:29;101175.08;;;23.24;23.91
77778;BME280;66966;-34.746;138.604;2023-03-26T03:45:54;101170.30;;;23.56;23.88
77778;BME280;66966;-34.746;138.604;2023-03-26T03:48:20;101168.81;;;23.63;24.11
77778;BME280;66966;-34.746;138.604;2023-03-26T03:50:45;101156.73;;;23.67;24.36
77778;BME280;66966;-34.746;138.604;2023-03-26T03:53:10;101142.28;;;23.75;24.26
77778;BME280;66966;-34.746;138.604;2023-03-26T03:55:36;101133.25;;;23.80;24.63
77778;BME280;66966;-34.746;138.604;2023-03-26T03:58:01;101129.76;;;23.92;24.04
77778;BME280;66966;-34.746;138.604;2023-03-26T04:00:26;101112.28;;;24.06;24.53
77778;BME280;66966;-34.746;138.604;2023-03-26T04:02:52;101095.95;;;23.91;23.98
77778;BME280;66966;-34.746;138.604;2023-03-26T04:05:17;101094.71;;;24.05;23.93
77778;BME280;66966;-34.746;138.604;2023-03-26T04:07:42;101097.62;;;24.37;23.86
77778;BME280;66966;-34.746;138.604;2023-03-26T04:10:11;101107.65;;;23.99;23.91
77778;BME280;66966;-34.746;138.604;2023-03-26T04:12:33;101111.37;;;24.35;23.82
77778;BME280;66966;-34.746;138.604;2023-03-26T04:15:00;101111.54;;;24.65;23.56
77778;BME280;66966;-34.746;138.604;2023-03-26T04:17:24;101108.66;;;24.21;23.70
77778;BME280;66966;-34.746;138.604;2023-03-26T04:19:49;101100.13;;;24.27;23.29
77778;BME280;66966;-34.746;138.604;2023-03-26T04:22:14;101088.47;;;24.23;23.35
77778;BME280;66966;-34.746;138.604;2023-03-26T04:24:39;101075.73;;;24.20;23.06
77778;BME280;66966;-34.746;138.604;2023-03-26T04:27:05;101066.05;;;24.11;22.86
77778;BME280;66966;-34.746;138.604;2023-03-26T04:29:36;101079.02;;;24.30;23.09
77778;BME280;66966;-34.746;138.604;2023-03-26T04:31:56;101081.29;;;24.27;23.48
77778;BME280;66966;-34.746;138.604;2023-03-26T04:34:22;101082.72;;;23.73;23.63
77778;BME280;66966;-34.746;138.604;2023-03-26T04:36:46;101072.24;;;23.94;24.06
77778;BME280;66966;-34.746;138.604;2023-03-26T04:39:13;101071.23;;;24.37;24.04
77778;BME280;66966;-34.746;138.604;2023-03-26T04:41:36;101074.37;;;23.94;24.36
77778;BME280;66966;-34.746;138.604;2023-03-26T04:44:02;101075.95;;;24.16;24.40
77778;BME280;66966;-34.746;138.604;2023-03-26T04:46:27;101085.32;;;23.83;24.77
77778;BME280;66966;-34.746;138.604;2023-03-26T04:48:53;101095.02;;;24.23;23.57
77778;BME280;66966;-34.746;138.604;2023-03-26T04:51:19;101100.23;;;23.90;23.53
77778;BME280;66966;-34.746;138.604;2023-03-26T04:53:44;101099.65;;;23.91;23.24
77778;BME280;66966;-34.746;138.604;2023-03-26T04:56:16;101088.12;;;23.98;23.42
77778;BME280;66966;-34.746;138.604;2023-03-26T04:58:33;101078.31;;;23.72;23.04
77778;BME280;66966;-34.746;138.604;2023-03-26T05:00:59;101062.25;;;23.94;22.90
77778;BME280;66966;-34.746;138.604;2023-03-26T05:03:24;101053.36;;;23.72;22.72
77778;BME280;66966;-34.746;138.604;2023-03-26T05:05:49;101039.70;;;23.93;22.70
77778;BME280;66966;-34.746;138.604;2023-03-26T05:08:15;101013.86;;;23.63;22.53
77778;BME280;66966;-34.746;138.604;2023-03-26T05:10:40;100992.77;;;24.09;22.77
77778;BME280;66966;-34.746;138.604;2023-03-26T05:13:05;100994.48;;;23.86;23.28
77778;BME280;66966;-34.746;138.604;2023-03-26T05:15:31;100999.73;;;24.06;23.71
77778;BME280;66966;-34.746;138.604;2023-03-26T05:17:56;101007.38;;;23.63;23.54
77778;BME280;66966;-34.746;138.604;2023-03-26T05:20:23;101011.49;;;23.72;23.07
77778;BME280;66966;-34.746;138.604;2023-03-26T05:22:47;101022.08;;;24.25;23.04
77778;BME280;66966;-34.746;138.604;2023-03-26T05:25:12;101027.81;;;24.32;23.03
77778;BME280;66966;-34.746;138.604;2023-03-26T05:27:38;101031.66;;;24.35;22.97
77778;BME280;66966;-34.746;138.604;2023-03-26T05:30:03;101031.91;;;24.25;22.91
77778;BME280;66966;-34.746;138.604;2023-03-26T05:32:29;101029.95;;;24.08;23.07
77778;BME280;66966;-34.746;138.604;2023-03-26T05:34:53;101028.58;;;24.10;22.87
77778;BME280;66966;-34.746;138.604;2023-03-26T05:37:18;101027.31;;;24.13;22.83
77778;BME280;66966;-34.746;138.604;2023-03-26T05:39:44;101028.83;;;24.37;22.67
77778;BME280;66966;-34.746;138.604;2023-03-26T05:42:09;101030.27;;;24.64;23.55
77778;BME280;66966;-34.746;138.604;2023-03-26T05:44:34;101026.91;;;24.39;24.58
77778;BME280;66966;-34.746;138.604;2023-03-26T05:47:00;101023.26;;;24.40;24.87
77778;BME280;66966;-34.746;138.604;2023-03-26T05:49:25;101013.52;;;24.16;24.99
77778;BME280;66966;-34.746;138.604;2023-03-26T05:51:50;101005.03;;;24.38;25.23
77778;BME280;66966;-34.746;138.604;2023-03-26T05:54:15;101003.93;;;24.15;24.54
77778;BME280;66966;-34.746;138.604;2023-03-26T05:56:41;100998.59;;;24.62;24.73
77778;BME280;66966;-34.746;138.604;2023-03-26T05:59:06;100995.28;;;24.15;24.26
77778;BME280;66966;-34.746;138.604;2023-03-26T06:01:31;100992.49;;;24.37;24.62
77778;BME280;66966;-34.746;138.604;2023-03-26T06:03:57;100985.66;;;24.36;24.90
77778;BME280;66966;-34.746;138.604;2023-03-26T06:06:22;100983.80;;;24.10;24.64
77778;BME280;66966;-34.746;138.604;2023-03-26T06:08:49;100982.51;;;24.34;24.99
77778;BME280;66966;-34.746;138.604;2023-03-26T06:11:13;100981.27;;;24.33;25.31
77778;BME280;66966;-34.746;138.604;2023-03-26T06:13:38;100986.23;;;24.02;25.52
77778;BME280;66966;-34.746;138.604;2023-03-26T06:16:04;100983.31;;;24.22;25.78
77778;BME280;66966;-34.746;138.604;2023-03-26T06:18:29;100984.75;;;24.40;25.72
77778;BME280;66966;-34.746;138.604;2023-03-26T06:20:54;100987.92;;;23.81;25.73
77778;BME280;66966;-34.746;138.604;2023-03-26T06:23:20;100986.69;;;23.74;25.40
77778;BME280;66966;-34.746;138.604;2023-03-26T06:25:45;100985.68;;;23.65;25.37
77778;BME280;66966;-34.746;138.604;2023-03-26T06:28:10;100983.69;;;23.86;25.41
77778;BME280;66966;-34.746;138.604;2023-03-26T06:30:35;100975.02;;;23.87;25.17
77778;BME280;66966;-34.746;138.604;2023-03-26T06:33:01;100971.50;;;23.82;25.26
77778;BME280;66966;-34.746;138.604;2023-03-26T06:35:26;100955.55;;;23.78;25.51
77778;BME280;66966;-34.746;138.604;2023-03-26T06:37:51;100944.39;;;23.49;25.93
77778;BME280;66966;-34.746;138.604;2023-03-26T06:40:17;100949.35;;;23.68;26.18
77778;BME280;66966;-34.746;138.604;2023-03-26T06:42:42;100945.70;;;23.36;26.74
77778;BME280;66966;-34.746;138.604;2023-03-26T06:45:08;100949.02;;;23.53;26.87
77778;BME280;66966;-34.746;138.604;2023-03-26T06:47:33;100938.07;;;23.77;27.09
77778;BME280;66966;-34.746;138.604;2023-03-26T06:49:58;100923.35;;;23.53;26.78
77778;BME280;66966;-34.746;138.604;2023-03-26T06:52:23;100923.43;;;23.26;26.73
77778;BME280;66966;-34.746;138.604;2023-03-26T06:54:49;100917.96;;;23.50;26.73
77778;BME280;66966;-34.746;138.604;2023-03-26T06:57:14;100916.23;;;23.82;26.51
77778;BME280;66966;-34.746;138.604;2023-03-26T06:59:40;100920.61;;;23.88;26.23
77778;BME280;66966;-34.746;138.604;2023-03-26T07:06:56;100918.03;;;23.87;25.75
77778;BME280;66966;-34.746;138.604;2023-03-26T07:09:21;100915.15;;;23.51;25.75
77778;BME280;66966;-34.746;138.604;2023-03-26T07:11:46;100914.37;;;24.00;25.67
77778;BME280;66966;-34.746;138.604;2023-03-26T07:14:11;100916.94;;;23.79;25.72
77778;BME280;66966;-34.746;138.604;2023-03-26T07:16:37;100916.61;;;23.83;25.62
77778;BME280;66966;-34.746;138.604;2023-03-26T07:19:02;100920.64;;;23.60;25.39
77778;BME280;66966;-34.746;138.604;2023-03-26T07:21:28;100918.27;;;24.06;25.45
77778;BME280;66966;-34.746;138.604;2023-03-26T07:23:53;100917.93;;;24.13;25.29
77778;BME280;66966;-34.746;138.604;2023-03-26T07:26:27;100917.22;;;23.91;25.41
77778;BME280;66966;-34.746;138.604;2023-03-26T07:28:49;100914.74;;;23.93;25.32
77778;BME280;66966;-34.746;138.604;2023-03-26T07:31:19;100911.37;;;23.76;25.19
77778;BME280;66966;-34.746;138.604;2023-03-26T07:33:38;100906.69;;;23.80;25.36
77778;BME280;66966;-34.746;138.604;2023-03-26T07:36:08;100899.98;;;23.85;25.40
77778;BME280;66966;-34.746;138.604;2023-03-26T07:38:35;100895.99;;;23.85;24.99
77778;BME280;66966;-34.746;138.604;2023-03-26T07:40:57;100902.60;;;23.88;25.00
77778;BME280;66966;-34.746;138.604;2023-03-26T07:43:26;100906.48;;;23.88;24.71
77778;BME280;66966;-34.746;138.604;2023-03-26T07:45:43;100915.11;;;23.89;24.75
77778;BME280;66966;-34.746;138.604;2023-03-26T07:48:14;100916.29;;;23.88;24.71
77778;BME280;66966;-34.746;138.604;2023-03-26T07:50:32;100907.62;;;24.10;24.54
77778;BME280;66966;-34.746;138.604;2023-03-26T07:52:58;100901.15;;;24.31;24.24
77778;BME280;66966;-34.746;138.604;2023-03-26T07:55:23;100900.21;;;24.02;24.09
77778;BME280;66966;-34.746;138.604;2023-03-26T07:57:57;100897.11;;;23.76;24.27
77778;BME280;66966;-34.746;138.604;2023-03-26T08:00:18;100896.94;;;23.99;24.21
77778;BME280;66966;-34.746;138.604;2023-03-26T08:05:09;100909.79;;;23.70;24.26
77778;BME280;66966;-34.746;138.604;2023-03-26T08:07:37;100906.42;;;24.19;24.27
77778;BME280;66966;-34.746;138.604;2023-03-26T08:10:04;100910.66;;;24.16;24.11
77778;BME280;66966;-34.746;138.604;2023-03-26T08:12:25;100909.09;;;23.87;24.14
77778;BME280;66966;-34.746;138.604;2023-03-26T08:14:52;100918.68;;;23.64;24.18
77778;BME280;66966;-34.746;138.604;2023-03-26T08:17:13;100927.43;;;23.86;23.88
77778;BME280;66966;-34.746;138.604;2023-03-26T08:19:47;100928.54;;;24.04;24.35
77778;BME280;66966;-34.746;138.604;2023-03-26T08:22:06;100943.07;;;23.50;24.00
77778;BME280;66966;-34.746;138.604;2023-03-26T08:24:32;100956.67;;;23.69;24.00
77778;BME280;66966;-34.746;138.604;2023-03-26T08:26:57;100957.11;;;23.68;24.23
77778;BME280;66966;-34.746;138.604;2023-03-26T08:29:26;100954.71;;;22.30;24.38
77778;BME280;66966;-34.746;138.604;2023-03-26T08:31:45;100948.56;;;23.82;23.83
77778;BME280;66966;-34.746;138.604;2023-03-26T08:34:11;100953.73;;;23.89;23.70
77778;BME280;66966;-34.746;138.604;2023-03-26T08:36:34;100949.02;;;23.55;23.87
77778;BME280;66966;-34.746;138.604;2023-03-26T08:38:59;100947.74;;;23.66;23.71
77778;BME280;66966;-34.746;138.604;2023-03-26T08:55:58;100975.76;;;23.48;23.83
77778;BME280;66966;-34.746;138.604;2023-03-26T09:01:00;100980.01;;;23.48;24.13
77778;BME280;66966;-34.746;138.604;2023-03-26T09:03:25;100977.59;;;23.25;24.96
77778;BME280;66966;-34.746;138.604;2023-03-26T09:15:27;100953.51;;;23.29;25.82
77778;BME280;66966;-34.746;138.604;2023-03-26T09:18:02;100930.43;;;23.50;25.81
77778;BME280;66966;-34.746;138.604;2023-03-26T09:27:35;100922.30;;;22.80;24.67
77778;BME280;66966;-34.746;138.604;2023-03-26T09:32:41;100930.12;;;23.47;24.72
77778;BME280;66966;-34.746;138.604;2023-03-26T09:37:16;100948.27;;;22.91;25.63
77778;BME280;66966;-34.746;138.604;2023-03-26T09:39:38;100950.26;;;23.11;25.59
77778;BME280;66966;-34.746;138.604;2023-03-26T09:42:08;100951.69;;;22.89;25.41
77778;BME280;66966;-34.746;138.604;2023-03-26T09:46:59;100941.01;;;22.84;24.72
77778;BME280;66966;-34.746;138.604;2023-03-26T09:51:50;100944.48;;;23.04;24.71
77778;BME280;66966;-34.746;138.604;2023-03-26T09:54:31;100949.01;;;23.08;24.50
77778;BME280;66966;-34.746;138.604;2023-03-26T09:56:38;100942.96;;;22.83;24.42
77778;BME280;66966;-34.746;138.604;2023-03-26T10:01:28;100938.45;;;22.86;24.27
77778;BME280;66966;-34.746;138.604;2023-03-26T10:03:55;100941.53;;;22.84;24.25
77778;BME280;66966;-34.746;138.604;2023-03-26T10:06:28;100939.48;;;23.07;24.14
77778;BME280;66966;-34.746;138.604;2023-03-26T10:08:49;100933.40;;;22.88;24.17
77778;BME280;66966;-34.746;138.604;2023-03-26T10:11:07;100932.22;;;23.10;24.23
77778;BME280;66966;-34.746;138.604;2023-03-26T10:13:35;100931.94;;;22.84;23.82
77778;BME280;66966;-34.746;138.604;2023-03-26T10:16:05;100938.16;;;23.10;23.78
77778;BME280;66966;-34.746;138.604;2023-03-26T10:18:22;100943.95;;;23.08;23.57
77778;BME280;66966;-34.746;138.604;2023-03-26T10:20:53;100949.64;;;22.85;23.67
77778;BME280;66966;-34.746;138.604;2023-03-26T10:23:21;100937.62;;;23.16;23.63
77778;BME280;66966;-34.746;138.604;2023-03-26T10:25:45;100931.57;;;23.38;23.62
77778;BME280;66966;-34.746;138.604;2023-03-26T10:28:11;100925.80;;;23.17;23.65
77778;BME280;66966;-34.746;138.604;2023-03-26T10:32:59;100909.35;;;22.98;23.71
77778;BME280;66966;-34.746;138.604;2023-03-26T10:35:25;100907.80;;;22.99;23.61
77778;BME280;66966;-34.746;138.604;2023-03-26T10:37:52;100905.74;;;23.00;23.75
77778;BME280;66966;-34.746;138.604;2023-03-26T10:40:18;100905.22;;;22.93;23.63
77778;BME280;66966;-34.746;138.604;2023-03-26T10:42:46;100893.83;;;22.98;23.70
77778;BME280;66966;-34.746;138.604;2023-03-26T10:45:14;100886.32;;;22.96;23.84
77778;BME280;66966;-34.746;138.604;2023-03-26T10:47:39;100880.09;;;22.95;24.20
77778;BME280;66966;-34.746;138.604;2023-03-26T10:50:02;100879.51;;;23.13;24.05
77778;BME280;66966;-34.746;138.604;2023-03-26T10:52:16;100884.82;;;23.16;23.90
77778;BME280;66966;-34.746;138.604;2023-03-26T10:54:47;100883.55;;;23.17;23.94
77778;BME280;66966;-34.746;138.604;2023-03-26T10:57:09;100878.37;;;23.21;23.80
77778;BME280;66966;-34.746;138.604;2023-03-26T10:59:30;100878.05;;;23.24;23.89
77778;BME280;66966;-34.746;138.604;2023-03-26T11:02:04;100883.75;;;23.02;23.86
77778;BME280;66966;-34.746;138.604;2023-03-26T11:04:28;100896.90;;;23.21;23.65
77778;BME280;66966;-34.746;138.604;2023-03-26T11:06:52;100907.91;;;22.94;23.53
77778;BME280;66966;-34.746;138.604;2023-03-26T11:09:20;100914.15;;;23.17;23.59
77778;BME280;66966;-34.746;138.604;2023-03-26T11:11:42;100911.56;;;23.22;23.65
77778;BME280;66966;-34.746;138.604;2023-03-26T11:14:07;100914.19;;;23.19;23.98
77778;BME280;66966;-34.746;138.604;2023-03-26T11:16:32;100912.86;;;22.94;24.27
77778;BME280;66966;-34.746;138.604;2023-03-26T11:18:56;100915.51;;;23.16;24.22
77778;BME280;66966;-34.746;138.604;2023-03-26T11:21:23;100916.07;;;22.94;24.80
77778;BME280;66966;-34.746;138.604;2023-03-26T11:23:50;100918.71;;;22.95;25.17
77778;BME280;66966;-34.746;138.604;2023-03-26T11:26:12;100914.71;;;22.94;24.48
77778;BME280;66966;-34.746;138.604;2023-03-26T11:31:06;100923.81;;;23.17;24.27
77778;BME280;66966;-34.746;138.604;2023-03-26T11:33:28;100929.31;;;22.91;24.62
77778;BME280;66966;-34.746;138.604;2023-03-26T11:35:52;100931.81;;;23.12;25.37
77778;BME280;66966;-34.746;138.604;2023-03-26T11:38:20;100932.16;;;23.09;25.18
77778;BME280;66966;-34.746;138.604;2023-03-26T11:40:43;100932.41;;;22.98;25.58
77778;BME280;66966;-34.746;138.604;2023-03-26T11:43:09;100930.16;;;22.94;25.83
77778;BME280;66966;-34.746;138.604;2023-03-26T11:45:34;100926.27;;;22.99;25.87
77778;BME280;66966;-34.746;138.604;2023-03-26T11:48:01;100922.05;;;22.96;26.20
77778;BME280;66966;-34.746;138.604;2023-03-26T11:50:26;100930.32;;;22.66;26.87
77778;BME280;66966;-34.746;138.604;2023-03-26T11:52:47;100919.58;;;22.86;26.90
77778;BME280;66966;-34.746;138.604;2023-03-26T11:55:13;100923.40;;;22.79;26.62
77778;BME280;66966;-34.746;138.604;2023-03-26T11:57:41;100929.58;;;22.56;26.79
77778;BME280;66966;-34.746;138.604;2023-03-26T12:00:05;100935.51;;;22.67;27.13
77778;BME280;66966;-34.746;138.604;2023-03-26T12:02:30;100940.15;;;22.60;27.23
77778;BME280;66966;-34.746;138.604;2023-03-26T12:07:21;100935.29;;;22.35;27.01
77778;BME280;66966;-34.746;138.604;2023-03-26T12:09:51;100936.30;;;22.61;27.43
77778;BME280;66966;-34.746;138.604;2023-03-26T12:12:11;100935.98;;;22.52;27.26
77778;BME280;66966;-34.746;138.604;2023-03-26T12:14:38;100922.99;;;22.77;26.98
77778;BME280;66966;-34.746;138.604;2023-03-26T12:17:03;100918.17;;;22.58;26.94
77778;BME280;66966;-34.746;138.604;2023-03-26T12:19:26;100911.89;;;22.58;26.97
77778;BME280;66966;-34.746;138.604;2023-03-26T12:21:53;100902.39;;;22.59;26.91
77778;BME280;66966;-34.746;138.604;2023-03-26T12:24:26;100893.82;;;22.84;26.93
77778;BME280;66966;-34.746;138.604;2023-03-26T12:26:43;100895.02;;;22.61;26.82
77778;BME280;66966;-34.746;138.604;2023-03-26T12:29:10;100892.84;;;22.65;26.94
77778;BME280;66966;-34.746;138.604;2023-03-26T12:31:44;100884.94;;;22.86;27.26
77778;BME280;66966;-34.746;138.604;2023-03-26T12:34:11;100879.77;;;22.85;27.03
77778;BME280;66966;-34.746;138.604;2023-03-26T12:36:29;100882.05;;;22.31;26.57
77778;BME280;66966;-34.746;138.604;2023-03-26T12:38:49;100885.13;;;22.70;26.69
77778;BME280;66966;-34.746;138.604;2023-03-26T12:41:17;100887.12;;;22.41;26.65
77778;BME280;66966;-34.746;138.604;2023-03-26T12:43:42;100893.71;;;22.62;26.61
77778;BME280;66966;-34.746;138.604;2023-03-26T12:46:21;100912.57;;;22.60;26.42
77778;BME280;66966;-34.746;138.604;2023-03-26T12:48:31;100911.27;;;22.57;26.23
77778;BME280;66966;-34.746;138.604;2023-03-26T12:51:06;100902.04;;;22.61;26.23
77778;BME280;66966;-34.746;138.604;2023-03-26T12:53:33;100893.55;;;22.08;26.26
77778;BME280;66966;-34.746;138.604;2023-03-26T12:55:56;100874.72;;;22.58;26.05
77778;BME280;66966;-34.746;138.604;2023-03-26T12:58:22;100873.61;;;22.55;25.98
77778;BME280;66966;-34.746;138.604;2023-03-26T13:00:49;100871.11;;;22.53;26.05
77778;BME280;66966;-34.746;138.604;2023-03-26T13:08:04;100872.98;;;22.64;26.07
77778;BME280;66966;-34.746;138.604;2023-03-26T13:12:49;100861.96;;;22.35;25.73
77778;BME280;66966;-34.746;138.604;2023-03-26T13:15:19;100866.50;;;22.30;25.88
77778;BME280;66966;-34.746;138.604;2023-03-26T13:17:41;100870.75;;;22.48;25.53
77778;BME280;66966;-34.746;138.604;2023-03-26T13:20:05;100874.17;;;22.45;25.66